Time;durP1;ratioP1;P1;durP2;ratioP2;P2;SDS_P1;SDS_P2;PMS_P1;PMS_P2;Temp;Humidity;BMP_temperature;BMP_pressure;BME280_temperature;BME280_humidity;BME280_pressure;Samples;Min_cycle;Max_cycle;Signal;HPM_P1;HPM_P2
2022/10/29 00:00:55;;;;;;;4.35;2.25;;;20.90;67.60;;;;;;5064181;28;43412;-58
2022/10/29 00:03:24;;;;;;;3.97;2.45;;;20.80;67.60;;;;;;5073436;28;44064;-58
2022/10/29 00:06:02;;;;;;;3.60;2.58;;;20.80;67.60;;;;;;5061534;28;43634;-58
2022/10/29 00:08:31;;;;;;;5.60;2.10;;;20.80;67.60;;;;;;5065886;28;44873;-58
2022/10/29 00:11:13;;;;;;;3.35;2.42;;;20.80;67.60;;;;;;5070544;28;43993;-58
2022/10/29 00:13:41;;;;;;;4.35;2.45;;;20.80;67.60;;;;;;5079278;28;43348;-58
2022/10/29 00:16:13;;;;;;;3.65;2.30;;;20.80;67.60;;;;;;5078701;28;43481;-58
2022/10/29 00:18:41;;;;;;;3.88;2.30;;;20.80;67.60;;;;;;5061134;28;44809;-58
2022/10/29 00:21:13;;;;;;;4.43;2.45;;;20.80;67.60;;;;;;5073302;28;43444;-58
2022/10/29 00:23:40;;;;;;;3.85;2.20;;;20.80;67.60;;;;;;5078961;28;43959;-58
2022/10/29 00:26:09;;;;;;;3.15;2.30;;;20.80;67.60;;;;;;5075283;28;43589;-58
2022/10/29 00:28:37;;;;;;;3.08;2.30;;;20.80;67.70;;;;;;5065109;28;44970;-58
2022/10/29 00:31:12;;;;;;;4.95;2.60;;;20.80;67.70;;;;;;5070526;28;43777;-58
2022/10/29 00:33:39;;;;;;;3.65;2.10;;;20.80;67.60;;;;;;5077427;28;43390;-58
2022/10/29 00:36:12;;;;;;;4.60;2.30;;;20.80;67.60;;;;;;5076338;28;43483;-58
2022/10/29 00:38:40;;;;;;;3.03;2.10;;;20.80;67.60;;;;;;5078315;28;44742;-58
2022/10/29 00:41:11;;;;;;;4.45;2.40;;;20.80;67.60;;;;;;5078530;28;43719;-58
2022/10/29 00:43:40;;;;;;;;;;;20.80;67.60;;;;;;5076669;28;43409;-58
2022/10/29 00:46:14;;;;;;;2.80;2.50;;;20.70;67.60;;;;;;5077167;28;43610;-58
2022/10/29 00:48:49;;;;;;;4.10;2.50;;;20.70;67.60;;;;;;5080301;28;45119;-58
2022/10/29 00:51:17;;;;;;;3.80;2.15;;;20.70;67.70;;;;;;5082102;28;43989;-58
2022/10/29 00:54:07;;;;;;;3.53;2.63;;;20.70;67.60;;;;;;5068042;28;43505;-58
2022/10/29 00:56:43;;;;;;;3.65;2.22;;;20.70;67.60;;;;;;5081334;28;43625;-58
2022/10/29 00:59:14;;;;;;;3.13;2.20;;;20.70;67.70;;;;;;5070630;28;43992;-58
2022/10/29 01:01:42;;;;;;;3.15;2.08;;;20.70;67.70;;;;;;5065450;28;44802;-58
2022/10/29 01:04:10;;;;;;;3.42;2.20;;;20.70;67.60;;;;;;5073365;28;43467;-58
2022/10/29 01:06:39;;;;;;;2.90;2.00;;;20.60;67.50;;;;;;5072814;28;43621;-58
2022/10/29 01:09:06;;;;;;;3.58;1.90;;;20.60;67.50;;;;;;5064705;28;44972;-58
2022/10/29 01:12:11;;;;;;;3.75;2.08;;;20.60;67.60;;;;;;5079194;28;43546;-58
2022/10/29 01:14:57;;;;;;;3.97;2.25;;;20.60;67.60;;;;;;5079845;28;43491;-59
2022/10/29 01:17:57;;;;;;;4.90;2.40;;;20.60;67.60;;;;;;5064792;28;43592;-58
2022/10/29 01:20:42;;;;;;;4.63;2.40;;;20.60;67.70;;;;;;5012985;28;44971;-58
2022/10/29 01:23:40;;;;;;;3.08;1.95;;;20.60;67.70;;;;;;5080890;28;43444;-58
2022/10/29 01:26:27;;;;;;;2.75;2.00;;;20.60;67.70;;;;;;5064772;28;43433;-58
2022/10/29 01:29:07;;;;;;;3.55;2.08;;;20.60;67.70;;;;;;5064128;28;43461;-58
2022/10/29 01:32:03;;;;;;;4.03;2.20;;;20.60;67.70;;;;;;5072181;28;44063;-58
2022/10/29 01:34:39;;;;;;;4.18;2.20;;;20.60;67.70;;;;;;5080653;28;43524;-58
2022/10/29 01:37:51;;;;;;;2.88;1.90;;;20.50;67.70;;;;;;5065667;28;43451;-58
2022/10/29 01:40:35;;;;;;;3.75;2.10;;;20.60;67.60;;;;;;5046088;28;43805;-58
2022/10/29 01:43:09;;;;;;;2.55;2.10;;;20.50;67.70;;;;;;5073850;28;45119;-58
2022/10/29 01:45:44;;;;;;;4.05;2.28;;;20.50;67.70;;;;;;5080426;28;43411;-58
2022/10/29 01:48:17;;;;;;;4.85;2.05;;;20.50;67.60;;;;;;5081598;28;43471;-58
2022/10/29 01:50:49;;;;;;;1.95;1.80;;;20.50;67.70;;;;;;5077272;28;43518;-58
2022/10/29 01:53:18;;;;;;;3.35;1.90;;;20.50;67.60;;;;;;5072078;28;44926;-58
2022/10/29 01:55:45;;;;;;;2.67;1.90;;;20.50;67.60;;;;;;5080292;28;44296;-58
2022/10/29 01:58:13;;;;;;;2.25;1.92;;;20.50;67.60;;;;;;5077778;28;43377;-58
2022/10/29 02:01:00;;;;;;;2.03;1.75;;;20.50;67.60;;;;;;5064653;28;43624;-58
2022/10/29 02:03:30;;;;;;;2.65;1.77;;;20.50;67.60;;;;;;5055956;28;43778;-58
2022/10/29 02:06:00;;;;;;;2.13;1.55;;;20.50;67.60;;;;;;5063573;28;43521;-58
2022/10/29 02:08:43;;;;;;;1.70;1.60;;;20.50;67.60;;;;;;5064354;28;43455;-58
2022/10/29 02:11:14;;;;;;;1.92;1.75;;;20.50;67.60;;;;;;5080778;28;43459;-58
2022/10/29 02:13:52;;;;;;;;;;;20.50;67.70;;;;;;5081197;28;44966;-58
2022/10/29 02:16:21;;;;;;;2.13;1.75;;;20.50;67.70;;;;;;5064585;28;43480;-58
2022/10/29 02:18:49;;;;;;;1.85;1.50;;;20.50;67.70;;;;;;5071531;28;43466;-58
2022/10/29 02:21:18;;;;;;;1.58;1.48;;;20.50;67.70;;;;;;5080921;28;43594;-58
2022/10/29 02:23:46;;;;;;;2.08;1.55;;;20.50;67.70;;;;;;5064295;28;45308;-58
2022/10/29 02:26:14;;;;;;;1.98;1.60;;;20.50;67.70;;;;;;5077209;28;43642;-58
2022/10/29 02:28:42;;;;;;;2.33;1.60;;;20.50;67.70;;;;;;5080748;28;43348;-58
2022/10/29 02:31:10;;;;;;;2.20;1.85;;;20.50;67.70;;;;;;5080879;28;43614;-58
2022/10/29 02:33:37;;;;;;;1.95;1.65;;;20.40;67.70;;;;;;5079261;28;44068;-58
2022/10/29 02:36:05;;;;;;;1.67;1.58;;;20.40;67.60;;;;;;5076913;28;44129;-58
2022/10/29 02:38:32;;;;;;;1.90;1.70;;;20.40;67.70;;;;;;5068719;28;43363;-58
2022/10/29 02:41:00;;;;;;;1.63;1.52;;;20.40;67.70;;;;;;5066323;28;43645;-58
2022/10/29 02:43:27;;;;;;;2.03;1.67;;;20.40;67.60;;;;;;5076593;28;44734;-58
2022/10/29 02:46:17;;;;;;;1.60;1.30;;;20.40;67.60;;;;;;5076860;28;43467;-58
2022/10/29 02:48:44;;;;;;;1.60;1.50;;;20.40;67.70;;;;;;5080614;28;43455;-58
2022/10/29 02:51:13;;;;;;;1.77;1.67;;;20.40;67.60;;;;;;5081142;28;43447;-58
2022/10/29 02:53:40;;;;;;;1.80;1.50;;;20.40;67.70;;;;;;5076209;28;44043;-58
2022/10/29 02:56:09;;;;;;;2.45;1.50;;;20.40;67.70;;;;;;5076114;28;43475;-58
2022/10/29 02:58:37;;;;;;;1.52;1.42;;;20.40;67.70;;;;;;5065196;28;43459;-58
2022/10/29 03:01:05;;;;;;;1.52;1.42;;;20.30;67.70;;;;;;5063282;28;43467;-58
2022/10/29 03:03:33;;;;;;;1.50;1.40;;;20.40;67.70;;;;;;5061860;28;44402;-58
2022/10/29 03:06:00;;;;;;;1.60;1.50;;;20.40;67.80;;;;;;5067547;28;43922;-58
2022/10/29 03:08:28;;;;;;;1.55;1.45;;;20.30;67.70;;;;;;5079425;28;43411;-58
2022/10/29 03:10:55;;;;;;;1.52;1.42;;;20.30;67.70;;;;;;5080095;27;43439;-58
2022/10/29 03:13:22;;;;;;;1.35;1.25;;;20.30;67.70;;;;;;5062644;28;44999;-58
2022/10/29 03:15:50;;;;;;;1.45;1.35;;;20.30;67.70;;;;;;5064540;28;43506;-58
2022/10/29 03:18:17;;;;;;;1.17;1.17;;;20.30;67.70;;;;;;5063039;28;43993;-58
2022/10/29 03:20:46;;;;;;;1.30;1.20;;;20.30;67.70;;;;;;5075982;28;43614;-58
2022/10/29 03:23:13;;;;;;;1.40;1.30;;;20.30;67.80;;;;;;5063130;28;43780;-58
2022/10/29 03:25:41;;;;;;;1.40;1.30;;;20.30;67.80;;;;;;5079113;28;43785;-58
2022/10/29 03:28:08;;;;;;;1.52;1.27;;;20.30;67.80;;;;;;5078947;28;43445;-59
2022/10/29 03:30:36;;;;;;;1.10;1.10;;;20.30;67.80;;;;;;5079431;28;43521;-58
2022/10/29 03:33:03;;;;;;;1.27;1.17;;;20.30;67.80;;;;;;5076626;28;44999;-58
2022/10/29 03:35:31;;;;;;;1.58;1.48;;;20.30;67.80;;;;;;5078153;28;44143;-58
2022/10/29 03:37:58;;;;;;;1.20;1.10;;;20.30;67.80;;;;;;5070285;28;43463;-58
2022/10/29 03:40:25;;;;;;;1.30;1.20;;;20.20;67.80;;;;;;5075765;28;43701;-58
2022/10/29 03:42:53;;;;;;;1.35;1.25;;;20.20;67.80;;;;;;5070694;28;44976;-58
2022/10/29 03:45:21;;;;;;;1.17;1.10;;;20.20;67.80;;;;;;5079022;28;43516;-58
2022/10/29 03:47:49;;;;;;;1.15;1.05;;;20.20;67.80;;;;;;5079159;28;43427;-58
2022/10/29 03:50:16;;;;;;;1.35;1.17;;;20.20;67.70;;;;;;5078813;28;43599;-58
2022/10/29 03:52:43;;;;;;;1.17;1.00;;;20.20;67.80;;;;;;5062581;28;44167;-58
2022/10/29 03:55:11;;;;;;;1.20;1.10;;;20.20;67.80;;;;;;5079172;28;43471;-58
2022/10/29 03:57:38;;;;;;;1.02;1.02;;;20.20;67.80;;;;;;5078571;28;43461;-58
2022/10/29 04:00:06;;;;;;;1.30;1.17;;;20.20;67.80;;;;;;5063931;28;43601;-58
2022/10/29 04:02:40;;;;;;;0.80;0.80;;;20.20;67.80;;;;;;5063807;28;45004;-58
2022/10/29 04:05:08;;;;;;;1.25;1.15;;;20.20;67.80;;;;;;5061845;28;44019;-58
2022/10/29 04:07:35;;;;;;;0.85;0.85;;;20.20;67.90;;;;;;5072106;28;43467;-58
2022/10/29 04:10:03;;;;;;;0.80;0.80;;;20.20;67.80;;;;;;5078510;28;43685;-58
2022/10/29 04:12:31;;;;;;;1.00;1.00;;;20.20;67.80;;;;;;5076234;28;44926;-58
2022/10/29 04:14:58;;;;;;;1.13;1.10;;;20.20;67.80;;;;;;5079253;28;43769;-58
2022/10/29 04:17:25;;;;;;;0.95;0.95;;;20.20;67.80;;;;;;5078384;28;43471;-58
2022/10/29 04:19:53;;;;;;;1.20;1.10;;;20.20;67.80;;;;;;5078116;28;43505;-58
2022/10/29 04:22:20;;;;;;;0.77;0.77;;;20.20;67.80;;;;;;5076682;28;43981;-58
2022/10/29 04:25:08;;;;;;;0.90;0.90;;;20.20;67.80;;;;;;5081921;28;43948;-58
2022/10/29 04:27:56;;;;;;;0.75;0.70;;;20.10;67.70;;;;;;5079913;28;43502;-58
2022/10/29 04:30:43;;;;;;;0.88;0.88;;;20.10;67.80;;;;;;5074833;28;43654;-58
2022/10/29 04:33:11;;;;;;;1.02;1.02;;;20.10;67.80;;;;;;5081974;28;44674;-58
2022/10/29 04:35:38;;;;;;;0.82;0.82;;;20.10;67.80;;;;;;5080370;28;43407;-58
2022/10/29 04:38:07;;;;;;;0.90;0.90;;;20.10;67.80;;;;;;5080480;28;43434;-58
2022/10/29 04:40:35;;;;;;;1.00;0.90;;;20.10;67.70;;;;;;5081787;28;43581;-58
2022/10/29 04:43:02;;;;;;;0.80;0.80;;;20.10;67.70;;;;;;5075281;28;44880;-58
2022/10/29 04:45:30;;;;;;;0.77;0.77;;;20.10;67.80;;;;;;5077278;28;43994;-58
2022/10/29 04:47:59;;;;;;;0.77;0.77;;;20.10;67.70;;;;;;5080720;28;43390;-57
2022/10/29 04:50:28;;;;;;;0.70;0.70;;;20.10;67.80;;;;;;5082230;28;43593;-58
2022/10/29 04:52:59;;;;;;;0.80;0.80;;;20.10;67.80;;;;;;5080781;28;44067;-58
2022/10/29 04:55:28;;;;;;;0.90;0.90;;;20.10;67.80;;;;;;5053975;28;43389;-58
2022/10/29 04:57:55;;;;;;;0.70;0.70;;;20.10;67.70;;;;;;5067556;28;43383;-58
2022/10/29 05:00:23;;;;;;;1.10;1.05;;;20.10;67.70;;;;;;5071981;28;43474;-58
2022/10/29 05:02:51;;;;;;;0.70;0.70;;;20.10;67.90;;;;;;5070628;28;45146;-58
2022/10/29 05:05:21;;;;;;;0.70;0.70;;;20.10;67.80;;;;;;5074801;28;43529;-59
2022/10/29 05:07:48;;;;;;;0.90;0.90;;;20.10;67.80;;;;;;5067615;28;43504;-58
2022/10/29 05:10:15;;;;;;;0.70;0.70;;;20.10;67.90;;;;;;5071433;28;44166;-58
2022/10/29 05:12:43;;;;;;;0.63;0.63;;;20.10;67.90;;;;;;5072695;28;43772;-58
2022/10/29 05:15:10;;;;;;;0.93;0.93;;;20.10;67.90;;;;;;5074623;28;43986;-59
2022/10/29 05:17:38;;;;;;;0.88;0.88;;;20.10;67.90;;;;;;5076254;28;43431;-58
2022/10/29 05:20:06;;;;;;;0.65;0.65;;;20.10;67.80;;;;;;5071349;28;43602;-58
2022/10/29 05:22:33;;;;;;;0.80;0.80;;;20.10;67.80;;;;;;5072866;28;45140;-59
2022/10/29 05:25:01;;;;;;;0.70;0.70;;;20.10;67.80;;;;;;5076088;28;43899;-59
2022/10/29 05:27:29;;;;;;;0.70;0.70;;;20.10;67.70;;;;;;5076302;28;43448;-59
2022/10/29 05:29:56;;;;;;;0.90;0.90;;;20.10;67.80;;;;;;5074547;28;43576;-58
2022/10/29 05:32:23;;;;;;;0.80;0.80;;;20.10;67.70;;;;;;5073001;28;45118;-59
2022/10/29 05:34:51;;;;;;;0.80;0.80;;;20.10;67.70;;;;;;5067476;28;43967;-59
2022/10/29 05:37:18;;;;;;;0.73;0.73;;;20.10;67.80;;;;;;5069697;28;43451;-58
2022/10/29 05:39:46;;;;;;;0.75;0.75;;;20.00;67.70;;;;;;5072962;28;43908;-59
2022/10/29 05:42:13;;;;;;;0.85;0.85;;;20.10;67.80;;;;;;5064775;28;44964;-59
2022/10/29 05:44:40;;;;;;;0.82;0.65;;;20.10;67.80;;;;;;5072518;28;44101;-60
2022/10/29 05:47:08;;;;;;;0.68;0.68;;;20.00;67.80;;;;;;5067910;28;43532;-59
2022/10/29 05:49:35;;;;;;;0.70;0.70;;;20.00;67.80;;;;;;5073207;28;43526;-59
2022/10/29 05:52:03;;;;;;;0.70;0.70;;;20.00;67.80;;;;;;5074336;28;43894;-59
2022/10/29 05:54:30;;;;;;;0.88;0.70;;;20.00;67.80;;;;;;5065864;28;43990;-59
2022/10/29 05:56:58;;;;;;;0.63;0.63;;;20.00;67.80;;;;;;5075687;28;43479;-59
2022/10/29 05:59:25;;;;;;;0.77;0.77;;;20.00;68.40;;;;;;5065265;28;43614;-59
2022/10/29 06:01:59;;;;;;;1.15;0.70;;;20.00;67.80;;;;;;5079717;28;45003;-59
2022/10/29 06:04:27;;;;;;;0.70;0.70;;;20.00;67.80;;;;;;5072981;28;44060;-59
2022/10/29 06:06:54;;;;;;;0.88;0.88;;;20.00;67.80;;;;;;5063402;28;43512;-59
2022/10/29 06:09:22;;;;;;;1.08;0.80;;;20.00;67.80;;;;;;5064585;28;43498;-59
2022/10/29 06:11:49;;;;;;;0.60;0.60;;;20.00;67.80;;;;;;5066093;28;44865;-59
2022/10/29 06:14:17;;;;;;;0.68;0.68;;;20.00;67.80;;;;;;5066298;28;43423;-59
2022/10/29 06:16:45;;;;;;;0.90;0.85;;;20.00;67.80;;;;;;5063263;28;43402;-58
2022/10/29 06:19:12;;;;;;;0.82;0.82;;;20.00;67.90;;;;;;5073619;28;43510;-59
2022/10/29 06:21:40;;;;;;;1.02;0.65;;;20.00;67.80;;;;;;5063384;28;44967;-59
2022/10/29 06:24:09;;;;;;;2.20;0.63;;;20.00;67.80;;;;;;5063661;28;43674;-59
2022/10/29 06:26:36;;;;;;;0.60;0.60;;;20.10;67.90;;;;;;5074584;28;43479;-59
2022/10/29 06:29:04;;;;;;;2.17;0.70;;;20.00;67.70;;;;;;5074062;28;43538;-59
2022/10/29 06:31:31;;;;;;;0.88;0.88;;;20.00;67.80;;;;;;5071191;28;44993;-59
2022/10/29 06:33:58;;;;;;;0.77;0.60;;;20.00;67.80;;;;;;5075579;28;44108;-59
2022/10/29 06:36:26;;;;;;;0.63;0.63;;;20.00;67.70;;;;;;5074327;28;43855;-59
2022/10/29 06:38:53;;;;;;;1.20;0.80;;;20.00;67.80;;;;;;5065747;28;43424;-59
2022/10/29 06:41:24;;;;;;;0.60;0.60;;;20.00;67.80;;;;;;5070626;28;44636;-58
2022/10/29 06:43:51;;;;;;;0.50;0.50;;;20.00;67.80;;;;;;5075939;28;44017;-59
2022/10/29 06:46:19;;;;;;;0.60;0.60;;;20.00;67.80;;;;;;5072228;28;43465;-59
2022/10/29 06:48:46;;;;;;;0.65;0.65;;;20.00;67.80;;;;;;5073078;28;43543;-58
2022/10/29 06:51:14;;;;;;;1.27;0.73;;;20.00;67.90;;;;;;5073386;28;43890;-59
2022/10/29 06:53:41;;;;;;;0.80;0.80;;;20.00;68.00;;;;;;5063790;28;44306;-58
2022/10/29 06:56:08;;;;;;;0.55;0.55;;;20.00;68.00;;;;;;5072705;28;43439;-59
2022/10/29 06:58:36;;;;;;;0.50;0.50;;;20.00;68.00;;;;;;5065179;28;43574;-59
2022/10/29 07:01:05;;;;;;;0.95;0.70;;;20.00;68.00;;;;;;5067866;28;44985;-59
2022/10/29 07:03:32;;;;;;;1.38;0.60;;;20.00;67.90;;;;;;5065781;28;43494;-59
2022/10/29 07:06:00;;;;;;;0.80;0.80;;;20.00;67.90;;;;;;5067910;28;43539;-59
2022/10/29 07:08:27;;;;;;;2.33;0.90;;;20.00;67.80;;;;;;5071119;28;43474;-59
2022/10/29 07:10:55;;;;;;;0.57;0.57;;;20.00;67.90;;;;;;5066301;28;44835;-59
2022/10/29 07:13:22;;;;;;;0.65;0.52;;;20.00;67.90;;;;;;5054598;28;43835;-59
2022/10/29 07:15:50;;;;;;;0.73;0.73;;;20.00;67.80;;;;;;5064630;28;43474;-59
2022/10/29 07:18:17;;;;;;;0.65;0.57;;;20.00;67.80;;;;;;5063162;28;43534;-58
2022/10/29 07:20:45;;;;;;;0.77;0.63;;;20.00;67.80;;;;;;5068420;28;44984;-58
2022/10/29 07:23:13;;;;;;;0.50;0.47;;;20.00;67.80;;;;;;5065073;28;43752;-59
2022/10/29 07:25:41;;;;;;;0.95;0.60;;;20.00;67.80;;;;;;5063520;28;43495;-59
2022/10/29 07:28:16;;;;;;;0.70;0.70;;;20.00;67.80;;;;;;5065399;28;43454;-59
2022/10/29 07:30:44;;;;;;;0.70;0.70;;;20.00;67.80;;;;;;5066701;28;44974;-59
2022/10/29 07:33:12;;;;;;;1.27;0.70;;;20.00;67.80;;;;;;5064989;28;43454;-59
2022/10/29 07:35:40;;;;;;;0.70;0.70;;;20.00;67.90;;;;;;5065854;28;43610;-59
2022/10/29 07:38:09;;;;;;;1.05;0.70;;;20.00;67.80;;;;;;5068695;28;43412;-59
2022/10/29 07:40:47;;;;;;;0.55;0.55;;;19.90;67.80;;;;;;5065648;28;43992;-59
2022/10/29 07:43:15;;;;;;;0.73;0.60;;;19.90;68.10;;;;;;5061255;28;43948;-58
2022/10/29 07:45:48;;;;;;;0.40;0.40;;;20.00;68.80;;;;;;5064429;28;43524;-59
2022/10/29 07:48:17;;;;;;;4.50;1.80;;;20.00;68.00;;;;;;5062508;28;43510;-61
2022/10/29 07:50:45;;;;;;;3.53;2.05;;;20.00;68.20;;;;;;5064595;28;44969;-59
2022/10/29 07:53:13;;;;;;;2.15;1.83;;;20.00;68.50;;;;;;5064383;28;43669;-60
2022/10/29 07:55:40;;;;;;;1.90;1.80;;;20.00;68.20;;;;;;5064686;28;43446;-60
2022/10/29 07:58:11;;;;;;;2.45;1.75;;;20.10;68.00;;;;;;5069567;28;43541;-59
2022/10/29 08:00:39;;;;;;;2.47;1.75;;;20.20;68.00;;;;;;5065070;28;44071;-60
2022/10/29 08:03:08;;;;;;;1.60;1.50;;;20.20;67.80;;;;;;5061026;28;43545;-60
2022/10/29 08:05:36;;;;;;;1.65;1.55;;;20.30;67.70;;;;;;5065278;28;43506;-60
2022/10/29 08:08:04;;;;;;;1.48;1.48;;;20.30;67.70;;;;;;5067497;28;43614;-60
2022/10/29 08:10:33;;;;;;;1.95;1.77;;;20.30;67.60;;;;;;5071444;28;44826;-60
2022/10/29 08:13:03;;;;;;;1.60;1.50;;;20.40;67.70;;;;;;5072548;28;43539;-60
2022/10/29 08:15:33;;;;;;;1.60;1.50;;;20.40;67.60;;;;;;5072391;28;43431;-60
2022/10/29 08:18:02;;;;;;;1.60;1.50;;;20.50;67.50;;;;;;5053007;28;43576;-60
2022/10/29 08:20:30;;;;;;;1.42;1.33;;;20.60;67.40;;;;;;5061285;28;44789;-60
2022/10/29 08:23:00;;;;;;;1.60;1.50;;;20.60;67.40;;;;;;5046142;28;43479;-60
2022/10/29 08:25:28;;;;;;;1.70;1.60;;;20.70;67.30;;;;;;5067227;28;43497;-60
2022/10/29 08:28:03;;;;;;;2.65;1.55;;;20.80;67.20;;;;;;5068318;28;43454;-60
2022/10/29 08:30:31;;;;;;;1.40;1.40;;;20.90;67.70;;;;;;5070715;28;45268;-61
2022/10/29 08:32:59;;;;;;;2.33;1.52;;;21.00;67.10;;;;;;5045755;28;44881;-60
2022/10/29 08:35:28;;;;;;;2.70;1.40;;;21.20;67.30;;;;;;5064461;28;43495;-61
2022/10/29 08:37:55;;;;;;;1.65;1.40;;;21.30;66.80;;;;;;5064369;28;43380;-62
2022/10/29 08:40:35;;;;;;;1.60;1.50;;;21.40;66.80;;;;;;5048469;28;45614;-61
2022/10/29 08:43:21;;;;;;;2.55;1.60;;;21.60;66.60;;;;;;5062857;28;43466;-61
2022/10/29 08:45:54;;;;;;;1.75;1.55;;;21.70;66.40;;;;;;5061288;28;43470;-59
2022/10/29 08:48:33;;;;;;;1.60;1.40;;;21.80;65.90;;;;;;5064735;28;43424;-60
2022/10/29 08:51:24;;;;;;;1.88;1.20;;;21.90;65.90;;;;;;5064445;28;44055;-61
2022/10/29 08:53:54;;;;;;;1.42;1.33;;;22.00;65.90;;;;;;5065104;28;44015;-60
2022/10/29 08:56:50;;;;;;;3.40;1.25;;;22.00;65.70;;;;;;5048538;28;43973;-60
2022/10/29 08:59:21;;;;;;;1.55;1.50;;;22.10;65.60;;;;;;5066258;28;43418;-60
2022/10/29 09:01:50;;;;;;;1.30;1.30;;;22.20;65.30;;;;;;5064918;28;44780;-60
2022/10/29 09:04:31;;;;;;;4.55;1.67;;;22.20;65.20;;;;;;5065450;28;44062;-60
2022/10/29 09:07:09;;;;;;;1.83;1.50;;;22.20;64.90;;;;;;5061700;28;43479;-60
2022/10/29 09:09:45;;;;;;;1.55;1.40;;;22.30;64.90;;;;;;5071100;28;43620;-60
2022/10/29 09:12:26;;;;;;;1.55;1.38;;;22.30;64.70;;;;;;5072497;28;45328;-60
2022/10/29 09:15:29;;;;;;;1.83;1.70;;;22.30;64.70;;;;;;5070148;28;43633;-60
2022/10/29 09:18:08;;;;;;;1.63;1.40;;;22.30;64.70;;;;;;5064734;28;43497;-60
2022/10/29 09:20:54;;;;;;;1.60;1.50;;;22.30;64.70;;;;;;5060343;28;43510;-61
2022/10/29 09:23:49;;;;;;;2.25;1.65;;;22.30;64.70;;;;;;5069757;28;51737;-60
2022/10/29 09:26:22;;;;;;;2.20;1.80;;;22.30;64.80;;;;;;5072859;28;43988;-60
2022/10/29 09:29:06;;;;;;;1.73;1.63;;;22.30;64.60;;;;;;5066570;28;43472;-60
2022/10/29 09:31:41;;;;;;;2.45;1.60;;;22.30;64.60;;;;;;5066287;28;43447;-60
2022/10/29 09:34:41;;;;;;;1.60;1.50;;;22.30;64.60;;;;;;5068845;28;44643;-60
2022/10/29 09:37:19;;;;;;;1.65;1.45;;;22.30;64.60;;;;;;5069048;28;43701;-60
2022/10/29 09:39:47;;;;;;;1.83;1.73;;;22.30;64.60;;;;;;5071249;28;43459;-60
2022/10/29 09:42:20;;;;;;;2.42;1.85;;;22.30;64.60;;;;;;5066603;28;43633;-60
2022/10/29 09:45:01;;;;;;;2.90;2.25;;;22.30;64.60;;;;;;5063474;28;44024;-60
2022/10/29 09:47:44;;;;;;;2.50;2.30;;;22.30;64.60;;;;;;5045848;28;43602;-60
2022/10/29 09:50:36;;;;;;;3.30;2.42;;;22.30;64.70;;;;;;5065534;28;43445;-59
2022/10/29 09:53:04;;;;;;;4.40;2.83;;;22.30;64.80;;;;;;5047868;28;43966;-59
2022/10/29 09:55:43;;;;;;;4.13;2.90;;;22.30;64.80;;;;;;5063738;28;44049;-59
2022/10/29 09:58:25;;;;;;;5.57;2.80;;;22.30;64.70;;;;;;5066618;28;44305;-59
2022/10/29 10:00:53;;;;;;;6.03;3.30;;;22.30;64.70;;;;;;5066580;28;43375;-59
2022/10/29 10:03:34;;;;;;;7.15;3.70;;;22.30;64.80;;;;;;5052750;28;43631;-59
2022/10/29 10:06:07;;;;;;;7.00;3.60;;;22.20;64.80;;;;;;5070998;28;44038;-60
2022/10/29 10:09:03;;;;;;;8.90;3.58;;;22.20;64.90;;;;;;5049543;28;43479;-60
2022/10/29 10:11:48;;;;;;;7.32;3.47;;;22.20;64.80;;;;;;5070228;28;43462;-60
2022/10/29 10:14:21;;;;;;;6.38;3.50;;;22.20;64.90;;;;;;5053616;28;43566;-60
2022/10/29 10:16:59;;;;;;;7.03;3.90;;;22.30;65.00;;;;;;5069956;28;44064;-60
2022/10/29 10:19:32;;;;;;;7.70;4.00;;;22.20;65.00;;;;;;5055782;28;43508;-60
2022/10/29 10:22:02;;;;;;;7.90;4.05;;;22.20;65.00;;;;;;5054227;28;43519;-60
2022/10/29 10:24:33;;;;;;;8.07;4.47;;;22.20;65.10;;;;;;5054274;28;43560;-60
2022/10/29 10:27:33;;;;;;;8.30;4.03;;;22.20;65.20;;;;;;5071155;28;44060;-60
2022/10/29 10:30:04;;;;;;;9.43;4.88;;;22.20;65.20;;;;;;5018252;28;43471;-61
2022/10/29 10:32:32;;;;;;;8.52;4.57;;;22.20;65.20;;;;;;5055031;28;43393;-60
2022/10/29 10:35:00;;;;;;;9.10;4.35;;;22.20;65.30;;;;;;5073258;28;43649;-61
2022/10/29 10:37:32;;;;;;;9.15;4.40;;;22.10;65.20;;;;;;5052826;28;43950;-60
2022/10/29 10:40:03;;;;;;;8.40;4.15;;;22.10;65.30;;;;;;5060993;28;43508;-59
2022/10/29 10:42:35;;;;;;;9.88;4.65;;;22.10;65.30;;;;;;5073314;28;43506;-60
2022/10/29 10:45:24;;;;;;;8.98;4.47;;;22.10;65.40;;;;;;5064953;28;43506;-60
2022/10/29 10:47:57;;;;;;;9.15;4.95;;;22.10;65.40;;;;;;5062174;28;43638;-60
2022/10/29 10:50:25;;;;;;;8.43;4.60;;;22.00;65.70;;;;;;5066481;28;43523;-60
2022/10/29 10:52:54;;;;;;;8.55;5.00;;;22.00;65.60;;;;;;5064386;28;43447;-59
2022/10/29 10:55:32;;;;;;;9.32;4.72;;;22.00;65.60;;;;;;5065313;28;43529;-60
2022/10/29 10:58:13;;;;;;;10.30;4.70;;;22.00;65.70;;;;;;5074945;28;44706;-59
2022/10/29 11:00:45;;;;;;;8.82;4.55;;;22.00;65.80;;;;;;5069853;27;43482;-59
2022/10/29 11:03:31;;;;;;;7.40;4.95;;;22.00;65.70;;;;;;5074152;28;43456;-59
2022/10/29 11:06:07;;;;;;;7.80;4.35;;;22.00;65.80;;;;;;5063411;28;43449;-59
2022/10/29 11:08:49;;;;;;;7.80;4.72;;;22.00;65.90;;;;;;5071906;27;43747;-60
2022/10/29 11:11:37;;;;;;;8.48;4.53;;;21.90;65.90;;;;;;5068638;28;44138;-60
2022/10/29 11:14:17;;;;;;;8.35;4.93;;;21.90;65.80;;;;;;5069690;27;43468;-61
2022/10/29 11:16:52;;;;;;;9.65;4.88;;;21.90;65.90;;;;;;5074968;27;43583;-60
2022/10/29 11:19:41;;;;;;;10.50;5.30;;;21.90;66.00;;;;;;5066003;28;43886;-60
2022/10/29 11:22:19;;;;;;;10.35;5.25;;;21.90;66.10;;;;;;5068493;27;43676;-60
2022/10/29 11:25:12;;;;;;;8.70;4.90;;;21.80;66.00;;;;;;5072215;28;43378;-60
2022/10/29 11:27:54;;;;;;;9.07;5.05;;;21.90;66.10;;;;;;5067442;28;43632;-60
2022/10/29 11:30:22;;;;;;;9.35;5.18;;;21.80;66.00;;;;;;5079169;28;44040;-59
2022/10/29 11:32:52;;;;;;;9.32;4.95;;;21.80;66.20;;;;;;5065150;28;43463;-60
2022/10/29 11:35:51;;;;;;;8.05;4.93;;;21.80;66.10;;;;;;5063625;28;43497;-60
2022/10/29 11:38:41;;;;;;;10.07;5.00;;;21.80;66.20;;;;;;5079057;27;43504;-60
2022/10/29 11:41:47;;;;;;;10.40;5.32;;;21.70;66.40;;;;;;5070006;28;43940;-59
2022/10/29 11:44:20;;;;;;;7.45;4.35;;;21.70;66.30;;;;;;5053478;28;43537;-59
2022/10/29 11:47:03;;;;;;;8.57;4.72;;;21.70;66.40;;;;;;5062929;28;43522;-59
2022/10/29 11:49:49;;;;;;;7.28;4.80;;;21.70;66.40;;;;;;5064980;28;43481;-59
2022/10/29 11:52:34;;;;;;;7.97;4.50;;;21.70;66.20;;;;;;5066872;28;43902;-60
2022/10/29 11:55:18;;;;;;;8.18;4.60;;;21.70;66.10;;;;;;5064869;27;43486;-59
2022/10/29 11:57:58;;;;;;;6.68;4.45;;;21.70;66.20;;;;;;5065022;28;43485;-60
2022/10/29 12:00:31;;;;;;;7.63;4.40;;;21.70;66.10;;;;;;5062133;28;43516;-59
2022/10/29 12:03:16;;;;;;;6.63;4.45;;;21.70;66.20;;;;;;5064510;28;43825;-59
2022/10/29 12:06:26;;;;;;;8.02;4.68;;;21.70;66.30;;;;;;5065330;28;43613;-59
2022/10/29 12:08:57;;;;;;;6.43;4.40;;;21.70;66.10;;;;;;5055466;28;43367;-59
2022/10/29 12:11:29;;;;;;;5.35;4.00;;;21.70;66.30;;;;;;5068110;28;43496;-60
2022/10/29 12:13:59;;;;;;;7.38;4.55;;;21.70;66.20;;;;;;5062888;28;43795;-60
2022/10/29 12:16:34;;;;;;;7.07;4.30;;;21.70;66.20;;;;;;5059479;28;43811;-59
2022/10/29 12:19:20;;;;;;;6.80;4.07;;;21.70;66.20;;;;;;5068861;28;43406;-60
2022/10/29 12:21:50;;;;;;;6.55;4.15;;;21.70;66.30;;;;;;5070419;28;43555;-59
2022/10/29 12:24:50;;;;;;;5.00;3.70;;;21.70;66.20;;;;;;5063556;27;43540;-60
2022/10/29 12:27:34;;;;;;;6.53;4.25;;;21.70;66.20;;;;;;5070210;28;43478;-60
2022/10/29 12:30:05;;;;;;;5.50;4.13;;;21.70;66.60;;;;;;5067609;28;43500;-60
2022/10/29 12:33:05;;;;;;;9.23;4.38;;;21.70;66.40;;;;;;5070093;28;43424;-59
2022/10/29 12:36:01;;;;;;;5.60;3.70;;;21.70;66.40;;;;;;5069425;28;43856;-59
2022/10/29 12:38:41;;;;;;;5.63;3.65;;;21.60;66.40;;;;;;5065937;28;43471;-60
2022/10/29 12:41:34;;;;;;;5.55;4.05;;;21.60;66.40;;;;;;5066707;27;43450;-59
2022/10/29 12:44:22;;;;;;;6.68;3.80;;;21.60;66.40;;;;;;5063403;28;43399;-59
2022/10/29 12:47:07;;;;;;;5.70;3.58;;;21.60;66.30;;;;;;5067988;28;43786;-59
2022/10/29 12:49:57;;;;;;;4.45;3.58;;;21.60;66.50;;;;;;5069054;28;43425;-59
2022/10/29 12:52:53;;;;;;;4.57;3.67;;;21.60;66.40;;;;;;5066317;28;43390;-59
2022/10/29 12:55:21;;;;;;;5.28;3.70;;;21.60;66.60;;;;;;5064291;28;43557;-60
2022/10/29 12:57:49;;;;;;;5.57;3.80;;;21.60;66.60;;;;;;5070617;28;43862;-59
2022/10/29 13:00:23;;;;;;;6.00;3.85;;;21.60;66.60;;;;;;5068717;27;43712;-59
2022/10/29 13:02:54;;;;;;;5.22;3.55;;;21.60;66.60;;;;;;5072816;28;43422;-59
2022/10/29 13:05:42;;;;;;;5.22;3.95;;;21.60;66.50;;;;;;5067095;28;43446;-59
2022/10/29 13:08:26;;;;;;;5.13;3.60;;;21.60;66.40;;;;;;5072610;27;43746;-59
2022/10/29 13:10:56;;;;;;;4.32;3.42;;;21.60;66.40;;;;;;5066080;28;43636;-60
2022/10/29 13:13:39;;;;;;;4.57;3.30;;;21.60;66.40;;;;;;5070910;28;43462;-61
2022/10/29 13:16:15;;;;;;;5.80;3.60;;;21.70;66.40;;;;;;5068676;28;43436;-60
2022/10/29 13:19:14;;;;;;;4.65;3.50;;;21.60;66.30;;;;;;5068361;28;44631;-59
2022/10/29 13:22:26;;;;;;;5.25;3.45;;;21.70;66.30;;;;;;5067231;28;43753;-59